메인 페이지
METAR-TAF:

METAR-TAF

공항 :

Mitiga International Airport

트리폴리, 리비아

위도: 32-54N, 경도: 13-17E, 고도: 11m

METAR: 누락

시각: 18:55 (16:55 UTC)

예보

예보는 5 시간 55분 전, 11:00시(UTC)에 발표되었습니다.
예보 대상 시간: 06일 12시부터 07일 12시까지 (UTC)
10kt
시정 10km 이상
고도 2500ft 상공 구름 보통
전환 중
06일 22시부터 06일 24시까지 (UTC)
여러 방향의 바람 2kt
확률 30%
07일 03시부터 07일 05시까지 (UTC)
시정: 5000m
박무
전환 중
07일 10시부터 07일 12시까지 (UTC)
북북서10kt

TAF: HLLM 061100Z 0612/0712 01010KT 9999 SCT025 BECMG 0622/0624 VRB02KT PROB30 0703/0705 5000 BR BECMG 0710/0712 34010KT

4,000개 이상의 공항 관측 자료 및 예보 (METAR 및 TAF 보고).

지도상에서 검색 가능한 기상관측소가 노란 점과 빨간 점으로 표시되어 있습니다.

기상관측소 명을 보려면 표시 위로 마우스를 이동하세요.

날씨 관측과 예보를 보려면 클릭하세요.

지도 변경 : 확대하려면 엑스 표시가 있는 녹색 버튼, 축소하려면 빼기 표시가 있는 녹색 버튼, 다음 페이지의 지도를 보려면 녹색 화살표를 클릭하세요.


METAR-TAF: